Skip Navigation LinksHome page > Weather > Current weather Skip Navigation Links

Current Weather

Eureka, Nunavut

For information only: do not use for flight planning or navigation.
Latest weather
Observation time Monday, October 5, 2015 8:00 PM CDT
Local time Monday, October 5, 2015 8:44 PM CDT
Flight conditions Marginal Visual Meteorological Conditions
Wind direction East-Northeast (70°)
Wind speed 2 mph
Visibility 6 mi.
Present weather mist
Sky condition
Ceiling 1,500 ft. broken clouds
Cloud layer broken clouds 1,500 ft.
Temperature 3°F
Dewpoint 1°F
Altimeter 29.68 in.Hg
Derived measurements
Relative humidity 92%
Wind chill 3°F
Density altitude -3585 ft.
Sea-level pressure 29.69 in.Hg
METAR CWEU 060100Z 07002KT 6SM BR BKN015 M16/M17 A2968 RMK SC7 SLP053


Location code

InnerDrive.Weather 4.0.5722.1 Release CLR 4.0.30319.34014
Copyright ©2015 Inner Drive Technology. All rights reserved. Portions Copyright ©1986-2015 David Braverman.

Find weather

Site navigation

Skip Navigation Links

Place info

Page info

PayPal - The safer, easier way to pay online!

Return home.

Copyright ©2015 Inner Drive Technology. Purveyors of fine, hand-crafted computer software. Page printed 2015-10-06T01:44:27 UTC.